Página principal
METAR-TAF:

METAR-TAF

Aeroportos :

Cairo, Egipto

Aeroporto Internacional do Cairo

latitude: 30-08N, longitude: 031-24E, altura: 64 m

Observação actual do tempo

O boletim foi feito há 37 minutos, às 21:00 UTC
Vento 9 kt de este
Temperatura 17°C
Humidade 59%
Pressão 1015 hPa
Visibilidade 10 km ou mais
sem nuvens abaixo de 1500 metros e sem cumulonimbus

METAR: HECA 192100Z 09009KT CAVOK 17/09 Q1015 NOSIG

Hora: 23:37 (21:37 UTC)

Previsão

O boletim foi feito há 4 horas e 37 minutos, às 17:00 UTC
Previsão válida de 19 às 18 UTC a 20 às 24 UTC
Vento 9 kt de norte
Visibilidade: 6000 m
Nuvens fragmentadasa uma altura de 5000 ft
Temporariamente
de 19 às 18 UTC a 20 às 06 UTC
Visibilidade: 4000 m
bruma
Probabilidade 40% :
Temporariamente
de 20 às 03 UTC a 20 às 06 UTC
Vento 3 kt com direcção variável

TAF: HECA 191700Z 1918/2024 35009KT 6000 BKN050 TEMPO 1918/2006 4000 HZ PROB40 TEMPO 2003/2006 VRB03KT 3000BR NSC

Observações e previsões do tempo de mais de 4000 aeroportos (mensagens METAR e TAF).

As estações disponíveis são os pontos amarelos e vermelhos sobre o mapa.

Mova o rato sobre o mapa para ver o nome da estação.

Depois clique no ponto para visualizar as observações e previsões meteorológicas.

Para alterar o mapa : clique nos botões verdes com uma cruz preta para aumentar o zoom; no botão verde com uma pitada de zoom; ou nas setas verdes para mapas adjacentes.


METAR-TAF: